Time;durP1;ratioP1;P1;durP2;ratioP2;P2;SDS_P1;SDS_P2;PMS_P1;PMS_P2;Temp;Humidity;BMP_temperature;BMP_pressure;BME280_temperature;BME280_humidity;BME280_pressure;Samples;Min_cycle;Max_cycle;Signal;HPM_P1;HPM_P2
2022/03/06 00:02:25;;;;;;;3.53;2.13;;;21.00;53.40;;;;;;5097360;28;20269;-88
2022/03/06 00:04:51;;;;;;;2.63;1.93;;;21.00;53.30;;;;;;5092063;28;20252;-88
2022/03/06 00:07:17;;;;;;;2.00;1.80;;;21.00;53.40;;;;;;5092351;28;20166;-88
2022/03/06 00:09:43;;;;;;;2.13;1.90;;;21.00;53.30;;;;;;5110897;28;20245;-88
2022/03/06 00:12:12;;;;;;;2.27;1.70;;;21.00;53.40;;;;;;5110266;28;20177;-87
2022/03/06 00:14:38;;;;;;;2.50;1.90;;;21.00;53.30;;;;;;5109881;28;20404;-88
2022/03/06 00:17:03;;;;;;;2.90;2.10;;;21.00;53.30;;;;;;5092524;28;20412;-88
2022/03/06 00:19:29;;;;;;;3.17;2.30;;;21.00;53.30;;;;;;5092058;28;20426;-87
2022/03/06 00:21:55;;;;;;;2.80;1.97;;;21.00;53.30;;;;;;5110220;28;20591;-88
2022/03/06 00:24:23;;;;;;;3.80;1.80;;;21.00;53.30;;;;;;5091678;28;20280;-87
2022/03/06 00:26:48;;;;;;;2.80;1.70;;;21.00;53.40;;;;;;5091656;28;20260;-88
2022/03/06 00:29:14;;;;;;;2.20;2.00;;;21.00;53.40;;;;;;5109793;28;20404;-88
2022/03/06 00:31:40;;;;;;;3.67;2.33;;;21.00;53.40;;;;;;5091941;28;20177;-88
2022/03/06 00:34:05;;;;;;;2.80;2.03;;;21.00;53.30;;;;;;5091434;28;20177;-88
2022/03/06 00:36:31;;;;;;;2.80;1.80;;;21.00;53.40;;;;;;5110614;28;20183;-88
2022/03/06 00:38:57;;;;;;;2.97;2.20;;;21.00;53.40;;;;;;5093591;28;20174;-88
2022/03/06 00:41:23;;;;;;;2.70;2.07;;;21.00;53.40;;;;;;5092838;28;20268;-87
2022/03/06 00:43:49;;;;;;;2.43;1.70;;;21.00;53.40;;;;;;5092890;28;20532;-87
2022/03/06 00:46:15;;;;;;;2.63;2.43;;;21.00;53.40;;;;;;5093709;28;20170;-88
2022/03/06 00:48:41;;;;;;;2.57;2.07;;;20.90;53.30;;;;;;5110796;28;20177;-88
2022/03/06 00:51:06;;;;;;;2.53;2.20;;;21.00;53.40;;;;;;5092961;28;20484;-87
2022/03/06 00:53:32;;;;;;;2.90;1.90;;;20.90;53.70;;;;;;5092943;28;20234;-88
2022/03/06 00:55:58;;;;;;;2.30;2.10;;;20.90;53.30;;;;;;5092991;28;20182;-88
2022/03/06 00:58:24;;;;;;;2.73;2.17;;;21.00;53.40;;;;;;5110681;28;20178;-88
2022/03/06 01:00:50;;;;;;;2.30;2.07;;;20.90;53.30;;;;;;5110654;28;20173;-88
2022/03/06 01:03:18;;;;;;;2.33;2.03;;;20.90;53.30;;;;;;5110611;28;20189;-87
2022/03/06 01:05:45;;;;;;;3.07;2.33;;;21.00;53.40;;;;;;5093107;28;20411;-87
2022/03/06 01:08:11;;;;;;;3.03;2.10;;;20.90;53.30;;;;;;5092313;28;20436;-88
2022/03/06 01:10:39;;;;;;;1.93;1.73;;;20.90;53.90;;;;;;5092975;28;20415;-87
2022/03/06 01:13:06;;;;;;;3.53;2.30;;;20.90;53.30;;;;;;5092752;28;20415;-88
2022/03/06 01:15:32;;;;;;;2.97;2.07;;;20.90;53.30;;;;;;5092642;28;20818;-87
2022/03/06 01:17:59;;;;;;;2.37;2.13;;;20.90;53.30;;;;;;5110781;28;20415;-88
2022/03/06 01:20:25;;;;;;;2.00;1.73;;;21.00;53.40;;;;;;5092677;28;20438;-88
2022/03/06 01:22:52;;;;;;;2.17;1.67;;;20.90;53.30;;;;;;5092621;28;20474;-87
2022/03/06 01:25:20;;;;;;;2.20;2.00;;;20.90;53.30;;;;;;5110895;28;20400;-88
2022/03/06 01:27:46;;;;;;;2.30;1.93;;;20.90;53.30;;;;;;5111421;28;20430;-87
2022/03/06 01:30:15;;;;;;;1.70;1.60;;;20.90;53.30;;;;;;5094116;28;20932;-86
2022/03/06 01:32:43;;;;;;;2.70;2.20;;;20.90;53.30;;;;;;5093367;28;20430;-88
2022/03/06 01:35:10;;;;;;;3.50;2.40;;;20.90;53.30;;;;;;5074912;28;20428;-87
2022/03/06 01:37:35;;;;;;;2.87;2.40;;;20.90;53.30;;;;;;5110381;28;20418;-88
2022/03/06 01:40:03;;;;;;;2.90;1.80;;;20.90;53.30;;;;;;5110156;28;20475;-86
2022/03/06 01:42:28;;;;;;;2.23;1.87;;;20.90;53.30;;;;;;5091002;28;20185;-87
2022/03/06 01:44:54;;;;;;;2.70;1.87;;;20.90;53.30;;;;;;5092043;28;20419;-88
2022/03/06 01:47:41;;;;;;;2.30;1.83;;;20.90;53.30;;;;;;5109819;28;20177;-88
2022/03/06 01:50:19;;;;;;;2.13;1.67;;;20.90;53.30;;;;;;5093004;28;20158;-87
2022/03/06 01:52:46;;;;;;;2.33;1.87;;;20.90;53.30;;;;;;5092744;28;20422;-87
2022/03/06 01:55:13;;;;;;;2.90;2.07;;;20.90;53.30;;;;;;5092904;28;20424;-87
2022/03/06 01:57:40;;;;;;;2.33;1.97;;;20.90;53.30;;;;;;5093000;28;20434;-87
2022/03/06 02:03:28;;;;;;;2.23;1.87;;;20.90;53.30;;;;;;5110421;28;20447;-88
2022/03/06 02:05:54;;;;;;;2.13;1.93;;;20.90;53.30;;;;;;5092482;28;20423;-87
2022/03/06 02:08:20;;;;;;;2.47;1.90;;;20.90;53.30;;;;;;5092507;28;20200;-87
2022/03/06 02:10:48;;;;;;;2.30;1.80;;;20.80;53.20;;;;;;5092032;28;20419;-87
2022/03/06 02:13:14;;;;;;;2.60;1.67;;;20.80;53.80;;;;;;5110703;28;20172;-88
2022/03/06 02:15:41;;;;;;;2.13;1.93;;;20.90;53.30;;;;;;5092804;28;20416;-87
2022/03/06 02:18:07;;;;;;;2.67;2.00;;;20.90;53.30;;;;;;5092587;28;20181;-87
2022/03/06 02:20:38;;;;;;;2.60;1.90;;;20.90;53.30;;;;;;5092067;28;20419;-87
2022/03/06 02:23:07;;;;;;;2.00;1.70;;;20.90;53.30;;;;;;5110615;28;20194;-87
2022/03/06 02:25:36;;;;;;;2.60;2.03;;;20.80;53.80;;;;;;5092236;28;20423;-87
2022/03/06 02:28:06;;;;;;;3.00;2.53;;;20.90;53.30;;;;;;5110116;28;20408;-87
2022/03/06 02:30:36;;;;;;;2.33;2.00;;;20.90;53.30;;;;;;5109856;28;20428;-87
2022/03/06 02:33:03;;;;;;;2.47;1.60;;;20.90;53.30;;;;;;5110031;28;20439;-87
2022/03/06 02:35:30;;;;;;;2.27;1.80;;;20.90;53.30;;;;;;5091572;28;20474;-87
2022/03/06 02:37:56;;;;;;;2.37;2.13;;;20.90;53.30;;;;;;5109333;28;20419;-87
2022/03/06 02:40:22;;;;;;;3.00;2.23;;;20.90;53.30;;;;;;5092040;28;20458;-87
2022/03/06 02:42:50;;;;;;;1.90;1.60;;;20.90;53.30;;;;;;5112282;28;20447;-87
2022/03/06 02:45:21;;;;;;;2.70;2.00;;;20.80;53.20;;;;;;5114904;28;20412;-87
2022/03/06 02:47:48;;;;;;;2.40;2.00;;;20.80;53.20;;;;;;5114188;28;20388;-87
2022/03/06 02:50:19;;;;;;;2.50;2.00;;;20.80;53.20;;;;;;5085721;28;20431;-87
2022/03/06 02:52:45;;;;;;;1.90;1.63;;;20.90;53.30;;;;;;5134615;28;20421;-87
2022/03/06 02:55:12;;;;;;;2.27;1.57;;;20.80;53.20;;;;;;5133731;28;20403;-87
2022/03/06 02:57:39;;;;;;;1.83;1.63;;;20.80;53.10;;;;;;5115666;28;20414;-87
2022/03/06 03:00:10;;;;;;;2.47;1.90;;;20.90;53.20;;;;;;5133906;28;20414;-87
2022/03/06 03:02:37;;;;;;;2.13;1.80;;;20.90;53.20;;;;;;5133834;28;20446;-87
2022/03/06 03:05:05;;;;;;;2.43;2.13;;;20.90;53.20;;;;;;5133811;28;20406;-87
2022/03/06 03:07:30;;;;;;;2.60;1.97;;;20.80;53.10;;;;;;5123938;28;20471;-88
2022/03/06 03:09:56;;;;;;;2.50;2.17;;;20.80;53.10;;;;;;5096125;28;20438;-87
2022/03/06 03:12:22;;;;;;;2.43;2.17;;;20.90;53.20;;;;;;5095833;28;20180;-87
2022/03/06 03:14:48;;;;;;;2.10;1.90;;;20.80;53.10;;;;;;5095770;28;20241;-87
2022/03/06 03:17:14;;;;;;;1.90;1.60;;;20.80;53.10;;;;;;5095983;28;20170;-87
2022/03/06 03:19:41;;;;;;;2.20;1.93;;;20.90;53.20;;;;;;5095259;28;20173;-87
2022/03/06 03:22:06;;;;;;;2.20;1.90;;;20.90;53.20;;;;;;5114018;28;20221;-87
2022/03/06 03:24:35;;;;;;;2.20;1.70;;;20.90;53.20;;;;;;5078262;28;20490;-87
2022/03/06 03:27:00;;;;;;;1.97;1.77;;;20.80;53.10;;;;;;5095707;28;20177;-87
2022/03/06 03:29:26;;;;;;;2.27;2.07;;;20.90;53.20;;;;;;5113840;28;20498;-87
2022/03/06 03:31:52;;;;;;;2.47;2.27;;;20.80;53.10;;;;;;5094988;28;20570;-87
2022/03/06 03:34:18;;;;;;;2.20;1.90;;;20.80;53.10;;;;;;5113075;28;20195;-87
2022/03/06 03:36:46;;;;;;;3.40;3.03;;;20.80;53.10;;;;;;5113093;28;20177;-87
2022/03/06 03:39:14;;;;;;;2.57;2.00;;;20.80;53.10;;;;;;5095486;28;20188;-87
2022/03/06 03:41:42;;;;;;;3.07;1.90;;;20.80;53.10;;;;;;5095266;28;20439;-87
2022/03/06 03:44:07;;;;;;;2.60;1.77;;;20.80;53.10;;;;;;5095038;28;20458;-87
2022/03/06 03:46:33;;;;;;;2.17;1.97;;;20.80;53.10;;;;;;5112656;28;20403;-87
2022/03/06 03:48:59;;;;;;;1.80;1.67;;;20.80;53.10;;;;;;5095099;28;20170;-87
2022/03/06 03:51:25;;;;;;;2.30;1.90;;;20.80;53.10;;;;;;5086577;28;20409;-87
2022/03/06 03:53:51;;;;;;;3.67;2.20;;;20.80;53.10;;;;;;5091794;28;20181;-88
2022/03/06 03:56:17;;;;;;;2.00;1.90;;;20.80;53.10;;;;;;5075134;28;20424;-87
2022/03/06 03:58:43;;;;;;;2.43;1.93;;;20.80;53.10;;;;;;5094611;28;20614;-87
2022/03/06 04:01:09;;;;;;;2.47;1.90;;;20.80;53.10;;;;;;5094771;28;20174;-87
2022/03/06 04:06:57;;;;;;;3.10;1.90;;;20.80;53.10;;;;;;5113258;28;20375;-87
2022/03/06 04:09:23;;;;;;;2.10;1.87;;;20.80;53.10;;;;;;5111527;28;20506;-87
2022/03/06 04:11:50;;;;;;;2.57;2.37;;;20.80;53.10;;;;;;5111446;28;20966;-86
2022/03/06 04:14:16;;;;;;;2.57;1.90;;;20.80;53.10;;;;;;5093564;28;20424;-87
2022/03/06 04:16:42;;;;;;;1.83;1.70;;;20.80;53.10;;;;;;5093609;28;20424;-87
2022/03/06 04:19:09;;;;;;;2.90;1.37;;;20.80;53.10;;;;;;5106057;28;20423;-88
2022/03/06 04:21:35;;;;;;;2.77;2.37;;;20.80;53.10;;;;;;5093402;28;20476;-87
2022/03/06 04:24:01;;;;;;;1.70;1.53;;;20.80;53.10;;;;;;5093622;28;20525;-87
2022/03/06 04:26:27;;;;;;;2.30;2.10;;;20.80;53.10;;;;;;5093371;28;20170;-87
2022/03/06 04:28:53;;;;;;;1.90;1.50;;;20.80;53.10;;;;;;5104826;28;20518;-87
2022/03/06 04:31:19;;;;;;;2.10;1.90;;;20.80;53.10;;;;;;5093974;28;20178;-87
2022/03/06 04:33:45;;;;;;;2.50;1.97;;;20.80;53.10;;;;;;5076119;28;20186;-87
2022/03/06 04:36:10;;;;;;;2.20;2.00;;;20.80;53.10;;;;;;5073768;28;20195;-87
2022/03/06 04:38:36;;;;;;;3.23;1.70;;;20.80;53.10;;;;;;5091638;28;20597;-87
2022/03/06 04:41:03;;;;;;;2.73;2.10;;;20.80;53.10;;;;;;5132198;28;20196;-87
2022/03/06 04:43:28;;;;;;;2.17;1.70;;;20.80;53.00;;;;;;5113642;28;20527;-87
2022/03/06 04:45:54;;;;;;;2.03;1.83;;;20.80;53.10;;;;;;5093690;28;20988;-88
2022/03/06 04:48:21;;;;;;;2.27;1.80;;;20.80;53.00;;;;;;5091939;28;20185;-88
2022/03/06 04:50:47;;;;;;;2.00;1.60;;;20.80;53.10;;;;;;5073601;28;20177;-88
2022/03/06 04:53:13;;;;;;;2.57;2.27;;;20.80;53.10;;;;;;5073607;28;20424;-87
2022/03/06 04:55:38;;;;;;;2.40;1.90;;;20.80;53.00;;;;;;5091302;28;20190;-88
2022/03/06 04:58:04;;;;;;;2.47;2.27;;;20.80;53.00;;;;;;5077692;28;20279;-87
2022/03/06 05:00:30;;;;;;;2.40;2.00;;;20.80;53.00;;;;;;5090695;28;20213;-87
2022/03/06 05:02:57;;;;;;;2.70;1.97;;;20.80;53.00;;;;;;5091098;28;20203;-87
2022/03/06 05:05:23;;;;;;;3.13;2.00;;;20.80;53.00;;;;;;5098625;28;20189;-87
2022/03/06 05:07:49;;;;;;;2.50;2.27;;;20.80;53.00;;;;;;5108684;28;20423;-87
2022/03/06 05:10:15;;;;;;;1.70;1.60;;;20.80;53.00;;;;;;5105570;28;20416;-88
2022/03/06 05:12:41;;;;;;;2.10;1.90;;;20.80;53.00;;;;;;5096472;28;20216;-87
2022/03/06 05:15:09;;;;;;;2.10;1.70;;;20.80;53.00;;;;;;5091827;28;20185;-87
2022/03/06 05:17:35;;;;;;;2.83;2.20;;;20.80;53.10;;;;;;5110582;28;20177;-87
2022/03/06 05:20:02;;;;;;;2.40;1.70;;;20.80;53.00;;;;;;5102309;28;20465;-87
2022/03/06 05:22:28;;;;;;;1.57;1.43;;;20.70;53.00;;;;;;5091793;28;20189;-87
2022/03/06 05:24:54;;;;;;;2.37;1.90;;;20.80;53.10;;;;;;5110455;28;20415;-87
2022/03/06 05:27:20;;;;;;;1.67;1.40;;;20.80;53.60;;;;;;5091946;28;20272;-87
2022/03/06 05:29:46;;;;;;;3.90;2.03;;;20.80;53.00;;;;;;5100186;28;20219;-87
2022/03/06 05:32:11;;;;;;;2.40;1.80;;;20.80;53.00;;;;;;5092305;28;20216;-88
2022/03/06 05:34:37;;;;;;;2.07;1.87;;;20.70;52.90;;;;;;5092486;28;20205;-87
2022/03/06 05:37:03;;;;;;;1.83;1.57;;;20.70;53.00;;;;;;5089815;28;20189;-87
2022/03/06 05:39:32;;;;;;;2.40;1.80;;;20.70;53.00;;;;;;5089450;28;20178;-87
2022/03/06 05:41:57;;;;;;;1.57;1.47;;;20.70;52.90;;;;;;5071788;28;20463;-87
2022/03/06 05:44:24;;;;;;;2.20;2.00;;;20.70;53.00;;;;;;5070039;28;20457;-88
2022/03/06 05:46:50;;;;;;;1.70;1.50;;;20.70;53.00;;;;;;5069526;28;20174;-87
2022/03/06 05:49:16;;;;;;;1.93;1.73;;;20.70;52.90;;;;;;5087137;28;20420;-88
2022/03/06 05:51:44;;;;;;;2.17;1.70;;;20.70;52.90;;;;;;5088190;28;20834;-87
2022/03/06 05:54:10;;;;;;;3.00;2.23;;;20.70;53.00;;;;;;5069935;28;20420;-88
2022/03/06 05:56:36;;;;;;;2.87;1.97;;;20.70;53.00;;;;;;5070232;28;20488;-87
2022/03/06 05:59:03;;;;;;;1.60;1.50;;;20.70;53.00;;;;;;5069792;28;20431;-88
2022/03/06 06:01:29;;;;;;;1.97;1.80;;;20.70;53.00;;;;;;5069233;28;20431;-88
2022/03/06 06:03:56;;;;;;;1.73;1.43;;;20.70;53.00;;;;;;5069445;28;20460;-87
2022/03/06 06:06:25;;;;;;;1.60;1.50;;;20.70;53.10;;;;;;5053936;28;20447;-86
2022/03/06 06:08:57;;;;;;;1.87;1.70;;;20.70;53.10;;;;;;5095405;28;20508;-87
2022/03/06 06:11:23;;;;;;;1.60;1.43;;;20.80;53.20;;;;;;5083238;28;20423;-87
2022/03/06 06:14:23;;;;;;;2.37;1.83;;;20.80;53.20;;;;;;5068486;28;20444;-87
2022/03/06 06:16:48;;;;;;;1.97;1.60;;;20.80;53.20;;;;;;5087755;28;20393;-87
2022/03/06 06:19:14;;;;;;;1.83;1.57;;;20.80;53.20;;;;;;5087201;28;20397;-87
2022/03/06 06:21:43;;;;;;;1.97;1.67;;;20.80;53.30;;;;;;5087307;28;20226;-87
2022/03/06 06:24:11;;;;;;;1.73;1.50;;;20.80;53.30;;;;;;5088284;28;20460;-87
2022/03/06 06:26:37;;;;;;;1.70;1.47;;;20.80;53.30;;;;;;5070056;28;20416;-88
2022/03/06 06:29:03;;;;;;;1.93;1.60;;;20.80;53.30;;;;;;5087772;28;20408;-87
2022/03/06 06:31:29;;;;;;;2.03;1.70;;;20.80;53.30;;;;;;5088315;28;20162;-86
2022/03/06 06:33:56;;;;;;;3.03;2.00;;;20.80;53.30;;;;;;5069873;28;20651;-87
2022/03/06 06:36:22;;;;;;;5.40;1.83;;;20.80;53.30;;;;;;5070557;28;20520;-87
2022/03/06 06:38:47;;;;;;;2.43;1.73;;;20.80;53.30;;;;;;5087911;28;20408;-88
2022/03/06 06:41:14;;;;;;;5.40;2.17;;;20.90;53.30;;;;;;5068957;28;20265;-87
2022/03/06 06:43:42;;;;;;;2.60;1.60;;;20.90;53.30;;;;;;5070581;28;20297;-87
2022/03/06 06:46:08;;;;;;;3.40;2.73;;;20.80;53.30;;;;;;5069769;28;20444;-87
2022/03/06 06:48:34;;;;;;;3.10;2.07;;;20.90;53.30;;;;;;5087371;28;20408;-87
2022/03/06 06:50:59;;;;;;;2.33;1.90;;;20.80;53.30;;;;;;5087655;28;20763;-87
2022/03/06 06:53:25;;;;;;;3.30;2.10;;;20.80;53.30;;;;;;5069651;28;20182;-86
2022/03/06 06:55:51;;;;;;;2.70;2.37;;;20.80;53.30;;;;;;5087673;28;20187;-87
2022/03/06 06:58:17;;;;;;;3.40;2.63;;;20.90;53.40;;;;;;5053404;28;20535;-87
2022/03/06 07:00:43;;;;;;;5.70;3.00;;;20.90;53.40;;;;;;5088154;28;20404;-87
2022/03/06 07:03:09;;;;;;;5.27;3.33;;;20.80;53.40;;;;;;5087794;28;20488;-87
2022/03/06 07:05:35;;;;;;;4.70;3.40;;;20.90;53.40;;;;;;5069379;28;20174;-87
2022/03/06 07:08:01;;;;;;;5.20;3.70;;;20.90;53.20;;;;;;5086892;28;20204;-88
2022/03/06 07:10:27;;;;;;;4.47;3.57;;;20.90;53.20;;;;;;5070329;28;20441;-86
2022/03/06 07:12:55;;;;;;;4.77;4.27;;;20.90;53.30;;;;;;5070602;28;20175;-87
2022/03/06 07:15:29;;;;;;;4.00;3.50;;;20.90;53.30;;;;;;5069695;28;20174;-87
2022/03/06 07:18:01;;;;;;;4.47;3.23;;;20.90;53.40;;;;;;5069290;28;20419;-87
2022/03/06 07:20:28;;;;;;;4.50;3.07;;;20.90;53.50;;;;;;5069733;28;20438;-87
2022/03/06 07:22:54;;;;;;;5.67;4.23;;;21.00;53.50;;;;;;5086304;28;20517;-87
2022/03/06 07:29:30;;;;;;;4.60;3.17;;;21.00;53.60;;;;;;5089270;28;20471;-87
2022/03/06 07:31:57;;;;;;;6.80;3.70;;;21.00;53.60;;;;;;5074068;28;20397;-86
2022/03/06 07:34:22;;;;;;;5.20;3.20;;;21.00;53.70;;;;;;5074065;28;20412;-87
2022/03/06 07:36:48;;;;;;;3.90;2.87;;;21.00;53.60;;;;;;5073062;28;20480;-87
2022/03/06 07:39:15;;;;;;;3.60;3.00;;;21.00;53.60;;;;;;5097293;28;20178;-87
2022/03/06 07:41:40;;;;;;;6.70;3.07;;;21.10;53.70;;;;;;5110011;28;20277;-86
2022/03/06 07:44:06;;;;;;;3.60;2.97;;;21.10;53.70;;;;;;5072405;28;20456;-86
2022/03/06 07:46:32;;;;;;;3.10;2.80;;;21.10;53.60;;;;;;5074062;28;20612;-85
2022/03/06 07:48:58;;;;;;;3.93;3.17;;;21.10;53.60;;;;;;5091137;28;20171;-87
2022/03/06 07:51:24;;;;;;;3.10;2.80;;;21.10;53.60;;;;;;5091137;28;20177;-85
2022/03/06 07:53:50;;;;;;;3.90;2.90;;;21.10;53.50;;;;;;5110022;28;20211;-86
2022/03/06 07:56:16;;;;;;;4.07;2.77;;;21.20;53.60;;;;;;5110951;28;20411;-87
2022/03/06 07:58:41;;;;;;;4.97;3.53;;;21.20;53.60;;;;;;5091723;28;20186;-86
2022/03/06 08:01:07;;;;;;;4.23;3.20;;;21.20;53.60;;;;;;5090506;28;20182;-87
2022/03/06 08:03:33;;;;;;;4.97;2.90;;;21.20;53.50;;;;;;5073431;28;20224;-86
2022/03/06 08:05:59;;;;;;;4.43;4.03;;;21.20;53.50;;;;;;5073178;28;20181;-87
2022/03/06 08:08:24;;;;;;;5.17;3.03;;;21.20;53.50;;;;;;5072757;28;20194;-87
2022/03/06 08:10:50;;;;;;;3.70;2.80;;;21.20;53.50;;;;;;5072947;28;20189;-86
2022/03/06 08:13:17;;;;;;;3.10;2.70;;;21.20;53.50;;;;;;5072759;28;20182;-86
2022/03/06 08:15:43;;;;;;;3.50;3.20;;;21.20;53.40;;;;;;5072171;28;20205;-85
2022/03/06 08:18:09;;;;;;;4.00;2.70;;;21.20;53.40;;;;;;5073314;28;20417;-86
2022/03/06 08:20:36;;;;;;;5.27;3.47;;;21.20;53.40;;;;;;5091175;28;20659;-83
2022/03/06 08:23:02;;;;;;;3.20;2.60;;;21.20;53.40;;;;;;5075970;28;20269;-85
2022/03/06 08:25:28;;;;;;;4.43;2.97;;;21.20;53.40;;;;;;5089503;28;20412;-86
2022/03/06 08:28:25;;;;;;;3.30;3.00;;;21.20;53.40;;;;;;5071042;28;20404;-85
2022/03/06 08:30:51;;;;;;;3.27;2.97;;;21.30;53.40;;;;;;5074195;28;20169;-85
2022/03/06 08:33:16;;;;;;;2.57;2.37;;;21.20;53.40;;;;;;5091905;28;20419;-85
2022/03/06 08:35:42;;;;;;;3.33;3.03;;;21.20;53.40;;;;;;5110077;28;20177;-84
2022/03/06 08:38:10;;;;;;;4.40;3.20;;;21.20;53.30;;;;;;5091639;28;20174;-86
2022/03/06 08:40:36;;;;;;;3.87;2.90;;;21.20;53.30;;;;;;5089999;28;20185;-85
2022/03/06 08:43:02;;;;;;;3.50;3.20;;;21.20;53.30;;;;;;5108678;28;20473;-85
2022/03/06 08:45:27;;;;;;;5.13;2.93;;;21.20;53.30;;;;;;5090002;28;20459;-87
2022/03/06 08:47:53;;;;;;;3.43;2.70;;;21.20;53.30;;;;;;5108557;28;20628;-86
2022/03/06 08:50:19;;;;;;;3.87;2.30;;;21.20;53.30;;;;;;5108064;28;20165;-86
2022/03/06 08:52:45;;;;;;;2.93;2.63;;;21.30;53.40;;;;;;5108644;28;20197;-87
2022/03/06 08:55:10;;;;;;;3.97;2.70;;;21.30;53.40;;;;;;5089456;28;20178;-87
2022/03/06 08:57:37;;;;;;;4.07;2.80;;;21.20;53.90;;;;;;5089306;28;20185;-87
2022/03/06 09:00:05;;;;;;;6.03;2.80;;;21.20;53.30;;;;;;5090192;28;20269;-86
2022/03/06 09:02:31;;;;;;;3.53;2.37;;;21.30;53.40;;;;;;5088871;28;20424;-88
2022/03/06 09:04:56;;;;;;;3.07;2.53;;;21.30;53.40;;;;;;5089343;28;20424;-88
2022/03/06 09:07:23;;;;;;;3.03;2.40;;;21.30;53.40;;;;;;5089432;28;20170;-87
2022/03/06 09:09:49;;;;;;;3.10;2.40;;;21.30;53.40;;;;;;5090689;28;20220;-88
2022/03/06 09:12:15;;;;;;;3.60;2.57;;;21.30;53.40;;;;;;5090358;28;20419;-89
2022/03/06 09:14:41;;;;;;;3.90;2.60;;;21.30;53.40;;;;;;5108749;28;20439;-87
2022/03/06 09:17:09;;;;;;;5.87;3.13;;;21.30;53.40;;;;;;5108812;28;20548;-87
2022/03/06 09:19:35;;;;;;;3.13;2.40;;;21.30;53.40;;;;;;5109300;28;20166;-87
2022/03/06 09:22:00;;;;;;;5.03;2.83;;;21.30;53.40;;;;;;5109101;28;20408;-87
2022/03/06 09:24:26;;;;;;;4.97;3.20;;;21.30;53.40;;;;;;5108208;28;20462;-87
2022/03/06 09:26:55;;;;;;;4.03;3.00;;;21.30;53.40;;;;;;5090881;28;20177;-87
2022/03/06 09:29:21;;;;;;;2.80;2.43;;;21.30;53.40;;;;;;5108249;28;20177;-86
2022/03/06 09:31:46;;;;;;;3.33;2.43;;;21.30;53.40;;;;;;5090791;28;20472;-87
2022/03/06 09:34:12;;;;;;;5.70;2.57;;;21.30;53.40;;;;;;5091029;28;20173;-87
2022/03/06 09:36:38;;;;;;;3.30;2.60;;;21.30;53.40;;;;;;5090738;28;20185;-87
2022/03/06 09:39:05;;;;;;;3.47;2.70;;;21.30;53.40;;;;;;5109273;28;20173;-87
2022/03/06 09:41:37;;;;;;;3.63;2.37;;;21.30;53.40;;;;;;5091182;28;20180;-87
2022/03/06 09:44:05;;;;;;;2.43;2.10;;;21.30;53.30;;;;;;5108265;28;20452;-87
2022/03/06 09:46:33;;;;;;;4.37;2.70;;;21.30;53.40;;;;;;5089858;28;20974;-87
2022/03/06 09:49:02;;;;;;;3.80;2.67;;;21.30;53.40;;;;;;5093896;28;21027;-87
2022/03/06 09:51:33;;;;;;;2.87;2.30;;;21.30;53.40;;;;;;5101535;28;20417;-87
2022/03/06 09:53:58;;;;;;;3.73;2.60;;;21.30;53.40;;;;;;5106487;28;20425;-87
2022/03/06 09:56:24;;;;;;;5.43;2.73;;;21.30;53.40;;;;;;5084390;28;20408;-87
2022/03/06 09:58:50;;;;;;;8.10;3.53;;;21.30;53.40;;;;;;5096932;28;20841;-87
2022/03/06 10:01:15;;;;;;;3.97;2.43;;;21.30;53.40;;;;;;5101864;28;20181;-87
2022/03/06 10:03:41;;;;;;;3.63;2.57;;;21.20;53.30;;;;;;5078725;28;20265;-88
2022/03/06 10:06:10;;;;;;;2.87;2.50;;;21.30;53.50;;;;;;5099174;28;20185;-87
2022/03/06 10:08:36;;;;;;;3.80;2.93;;;21.20;53.40;;;;;;5108323;28;20185;-87
2022/03/06 10:11:11;;;;;;;3.63;2.63;;;21.30;53.50;;;;;;5087362;28;20432;-88
2022/03/06 10:13:40;;;;;;;2.90;2.60;;;21.20;53.40;;;;;;5081491;28;20463;-89
2022/03/06 10:16:07;;;;;;;3.20;2.63;;;21.30;53.50;;;;;;5102514;28;20423;-88
2022/03/06 10:18:38;;;;;;;3.30;2.50;;;21.20;53.40;;;;;;5081653;28;20443;-88
2022/03/06 10:21:11;;;;;;;2.83;2.20;;;21.20;53.40;;;;;;5083599;28;20435;-87
2022/03/06 10:23:37;;;;;;;3.70;2.43;;;21.20;53.40;;;;;;5077995;28;20448;-88
2022/03/06 10:26:12;;;;;;;3.07;2.17;;;21.20;53.40;;;;;;5086788;28;20429;-88
2022/03/06 10:28:44;;;;;;;3.63;2.50;;;21.20;53.40;;;;;;5105520;28;20829;-87
2022/03/06 10:31:12;;;;;;;3.67;2.43;;;21.20;53.40;;;;;;5102667;28;20412;-87
2022/03/06 10:33:39;;;;;;;2.40;2.03;;;21.20;53.40;;;;;;5097078;28;20481;-87
2022/03/06 10:36:08;;;;;;;3.00;2.47;;;21.20;53.40;;;;;;5090441;28;20596;-87
2022/03/06 10:38:35;;;;;;;2.50;2.30;;;21.20;53.40;;;;;;5090738;28;20431;-88
2022/03/06 10:41:13;;;;;;;5.60;2.20;;;21.20;53.40;;;;;;5098948;28;20423;-87
2022/03/06 10:43:40;;;;;;;1.93;1.73;;;21.20;53.40;;;;;;5076142;28;20466;-87
2022/03/06 10:46:14;;;;;;;3.23;2.40;;;21.20;53.40;;;;;;5070016;28;20432;-87
2022/03/06 10:48:44;;;;;;;3.77;2.23;;;21.20;53.40;;;;;;5087550;28;20415;-87
2022/03/06 10:51:12;;;;;;;3.13;2.53;;;21.20;54.00;;;;;;5087546;28;20470;-86
2022/03/06 10:53:38;;;;;;;2.43;2.23;;;21.20;53.40;;;;;;5087581;28;20413;-87
2022/03/06 10:56:13;;;;;;;3.20;2.83;;;21.20;53.40;;;;;;5077810;28;20468;-86
2022/03/06 10:58:44;;;;;;;3.70;2.30;;;21.20;53.40;;;;;;5075684;28;20420;-88
2022/03/06 11:01:10;;;;;;;2.90;2.17;;;21.20;53.40;;;;;;5069624;28;20420;-87
2022/03/06 11:03:37;;;;;;;3.50;2.33;;;21.20;53.40;;;;;;5071683;28;20467;-86
2022/03/06 11:06:11;;;;;;;3.50;2.30;;;21.20;53.40;;;;;;5073677;28;20431;-87
2022/03/06 11:08:39;;;;;;;2.40;2.13;;;21.20;53.40;;;;;;5106542;28;20433;-88
2022/03/06 11:11:07;;;;;;;2.63;2.13;;;21.20;53.40;;;;;;5073377;28;20451;-86
2022/03/06 11:13:33;;;;;;;3.20;2.10;;;21.20;53.40;;;;;;5072372;28;20428;-87
2022/03/06 11:15:59;;;;;;;3.30;2.30;;;21.20;53.40;;;;;;5080601;28;20438;-88
2022/03/06 11:18:26;;;;;;;3.50;2.63;;;21.20;53.40;;;;;;5091031;28;20416;-88
2022/03/06 11:20:54;;;;;;;3.63;2.63;;;21.20;53.40;;;;;;5090550;28;20436;-86
2022/03/06 11:23:42;;;;;;;2.33;2.00;;;21.20;53.40;;;;;;5073033;28;20460;-86
2022/03/06 11:26:17;;;;;;;2.30;2.00;;;21.20;53.40;;;;;;5081049;28;20427;-87
2022/03/06 11:29:26;;;;;;;2.40;2.20;;;21.20;53.50;;;;;;5075688;28;20415;-87
2022/03/06 11:31:58;;;;;;;3.23;2.53;;;21.20;53.50;;;;;;5073305;28;20427;-87
2022/03/06 11:34:26;;;;;;;3.10;2.00;;;21.20;53.50;;;;;;5090623;28;20797;-87
2022/03/06 11:36:53;;;;;;;2.33;2.00;;;21.20;53.50;;;;;;5090380;28;20416;-87
2022/03/06 11:39:31;;;;;;;3.90;2.60;;;21.10;53.40;;;;;;5075202;28;20418;-87
2022/03/06 11:42:09;;;;;;;2.80;2.27;;;21.10;53.40;;;;;;5090738;28;20918;-87
2022/03/06 11:44:40;;;;;;;4.10;2.07;;;21.20;53.50;;;;;;5089909;28;20455;-87
2022/03/06 11:47:37;;;;;;;3.10;1.63;;;21.10;53.40;;;;;;5091356;28;20457;-86
2022/03/06 11:50:05;;;;;;;2.57;2.00;;;21.20;53.50;;;;;;5110115;28;20870;-87
2022/03/06 11:52:36;;;;;;;2.33;2.10;;;21.20;53.50;;;;;;5090691;28;20427;-87
2022/03/06 11:55:23;;;;;;;2.40;1.93;;;21.10;53.40;;;;;;5110112;28;20415;-87
2022/03/06 11:57:50;;;;;;;2.70;2.50;;;21.20;53.50;;;;;;5110355;28;20408;-86
2022/03/06 12:00:22;;;;;;;2.30;2.10;;;21.10;53.40;;;;;;5092285;28;20481;-87
2022/03/06 12:02:49;;;;;;;3.23;2.20;;;21.10;53.40;;;;;;5091847;28;20491;-86
2022/03/06 12:05:16;;;;;;;3.33;2.43;;;21.10;53.40;;;;;;5092938;28;20427;-89
2022/03/06 12:07:50;;;;;;;3.03;2.47;;;21.10;53.40;;;;;;5109829;28;20415;-87
2022/03/06 12:10:16;;;;;;;2.83;2.53;;;21.10;53.40;;;;;;5091938;28;20431;-88
2022/03/06 12:12:43;;;;;;;2.30;1.77;;;21.10;53.40;;;;;;5110463;28;20423;-87
2022/03/06 12:15:16;;;;;;;4.13;2.37;;;21.10;53.40;;;;;;5090434;28;20457;-87
2022/03/06 12:17:43;;;;;;;2.13;1.80;;;21.10;53.40;;;;;;5108680;28;20412;-87
2022/03/06 12:20:08;;;;;;;2.40;2.00;;;21.10;53.40;;;;;;5091278;28;20431;-88
2022/03/06 12:22:47;;;;;;;3.27;2.00;;;21.10;53.40;;;;;;5091911;28;20497;-88
2022/03/06 12:25:15;;;;;;;2.30;2.10;;;21.10;53.40;;;;;;5090659;28;20237;-87
2022/03/06 12:28:02;;;;;;;3.50;2.27;;;21.10;53.40;;;;;;5108921;28;20435;-88
2022/03/06 12:30:30;;;;;;;3.80;2.23;;;21.10;53.40;;;;;;5091225;28;20428;-88
2022/03/06 12:32:56;;;;;;;3.53;2.30;;;21.10;53.40;;;;;;5090889;28;20412;-87
2022/03/06 12:35:25;;;;;;;2.13;1.77;;;21.10;53.40;;;;;;5092350;28;20921;-88
2022/03/06 12:37:53;;;;;;;2.70;2.33;;;21.20;53.50;;;;;;5110614;28;20456;-88
2022/03/06 12:40:25;;;;;;;3.33;2.27;;;21.10;53.40;;;;;;5092418;28;20967;-87
2022/03/06 12:43:05;;;;;;;2.30;2.07;;;21.10;53.40;;;;;;5110285;28;20515;-87
2022/03/06 12:45:34;;;;;;;2.87;2.30;;;21.10;53.30;;;;;;5110260;28;20868;-87
2022/03/06 12:48:00;;;;;;;3.63;2.37;;;21.10;53.30;;;;;;5109821;28;20454;-87
2022/03/06 12:50:26;;;;;;;2.30;2.10;;;21.10;53.30;;;;;;5099945;28;20423;-87
2022/03/06 12:52:56;;;;;;;2.30;1.80;;;21.10;53.30;;;;;;5092284;28;20181;-86
2022/03/06 12:55:24;;;;;;;2.63;1.80;;;21.10;53.30;;;;;;5110107;28;20174;-86
2022/03/06 12:57:55;;;;;;;2.37;2.00;;;21.10;53.30;;;;;;5109803;28;20416;-86
2022/03/06 13:00:28;;;;;;;3.60;1.93;;;21.10;53.30;;;;;;5109827;28;20407;-86
2022/03/06 13:09:34;;;;;;;2.27;2.03;;;21.10;53.30;;;;;;5110263;28;20483;-88